createdAt,value
2018-08-24T00:01:27.148Z,99544.57
2018-08-24T00:03:57.673Z,99537.05
2018-08-24T00:06:28.724Z,99539.64
2018-08-24T00:08:59.453Z,99537.78
2018-08-24T00:11:30.752Z,99539.92
2018-08-24T00:14:01.498Z,99538.56
2018-08-24T00:16:39.054Z,99539.35
2018-08-24T00:19:13.741Z,99534.69
2018-08-24T00:21:44.233Z,99537.66
2018-08-24T00:24:14.726Z,99534.91
2018-08-24T00:26:44.695Z,99541.91
2018-08-24T00:29:14.459Z,99539.14
2018-08-24T00:31:44.247Z,99538.29
2018-08-24T00:34:14.289Z,99530.67
2018-08-24T00:36:44.065Z,99540.91
2018-08-24T00:39:13.785Z,99540.84
2018-08-24T00:41:43.569Z,99534.80
2018-08-24T00:44:13.298Z,99529.89
2018-08-24T00:46:43.132Z,99526.29
2018-08-24T00:49:13.800Z,99524.35
2018-08-24T00:51:44.605Z,99532.42
2018-08-24T00:54:15.436Z,99529.94
2018-08-24T00:56:47.063Z,99529.34
2018-08-24T00:59:17.611Z,99523.88
2018-08-24T01:01:48.525Z,99525.44
2018-08-24T01:04:23.270Z,99521.31
2018-08-24T01:06:53.879Z,99515.77
2018-08-24T01:09:23.822Z,99521.41
2018-08-24T01:11:58.654Z,99524.09
2018-08-24T01:14:28.413Z,99517.28
2018-08-24T01:17:03.521Z,99519.90
2018-08-24T01:19:33.244Z,99514.70
2018-08-24T01:22:03.210Z,99516.81
2018-08-24T01:24:33.098Z,99511.28
2018-08-24T01:27:02.841Z,99512.04
2018-08-24T01:29:33.968Z,99514.69
2018-08-24T01:32:04.035Z,99512.25
2018-08-24T01:34:35.467Z,99506.22
2018-08-24T01:37:05.420Z,99508.06
2018-08-24T01:39:35.295Z,99510.45
2018-08-24T01:42:05.518Z,99512.30
2018-08-24T01:44:35.291Z,99507.05
2018-08-24T01:47:05.921Z,99505.84
2018-08-24T01:49:36.627Z,99518.28
2018-08-24T01:52:07.600Z,99524.63
2018-08-24T01:54:38.482Z,99528.79
2018-08-24T01:57:09.797Z,99520.64
2018-08-24T01:59:40.560Z,99523.98
2018-08-24T02:02:11.534Z,99517.19
2018-08-24T02:04:42.849Z,99525.45
2018-08-24T02:07:13.705Z,99515.77
2018-08-24T02:09:44.388Z,99510.34
2018-08-24T02:12:20.647Z,99512.17
2018-08-24T02:14:50.369Z,99512.95
2018-08-24T02:17:25.085Z,99503.45
2018-08-24T02:19:59.899Z,99521.22
2018-08-24T02:22:29.965Z,99527.84
2018-08-24T02:24:59.870Z,99530.16
2018-08-24T02:27:29.643Z,99532.20
2018-08-24T02:29:59.438Z,99527.39
2018-08-24T02:32:29.135Z,99522.54
2018-08-24T02:35:00.331Z,99517.66
2018-08-24T02:37:31.288Z,99516.85
2018-08-24T02:40:01.458Z,99513.09
2018-08-24T02:42:31.349Z,99517.95
2018-08-24T02:45:01.285Z,99513.00
2018-08-24T02:47:31.256Z,99511.69
2018-08-24T02:50:00.965Z,99502.72
2018-08-24T02:52:31.953Z,99509.72
2018-08-24T02:55:02.756Z,99497.23
2018-08-24T02:57:33.865Z,99502.33
2018-08-24T03:00:04.736Z,99506.05
2018-08-24T03:02:35.621Z,99511.89
2018-08-24T03:05:06.808Z,99501.00
2018-08-24T03:07:38.079Z,99500.94
2018-08-24T03:10:08.709Z,99497.63
2018-08-24T03:12:40.000Z,99499.74
2018-08-24T03:15:10.628Z,99501.27
2018-08-24T03:18:00.762Z,99496.36
2018-08-24T03:20:30.631Z,99493.52
2018-08-24T03:23:00.715Z,99500.55
2018-08-24T03:25:31.033Z,99491.08
2018-08-24T03:28:01.058Z,99489.38
2018-08-24T03:30:31.024Z,99494.14
2018-08-24T03:33:01.036Z,99487.88
2018-08-24T03:35:31.280Z,99484.60
2018-08-24T03:38:01.099Z,99482.67
2018-08-24T03:40:31.443Z,99487.48
2018-08-24T03:43:01.497Z,99490.65
2018-08-24T03:45:31.254Z,99484.90
2018-08-24T03:48:02.134Z,99481.33
2018-08-24T03:50:32.068Z,99473.20
2018-08-24T03:53:01.877Z,99474.19
2018-08-24T03:55:36.095Z,99475.13
2018-08-24T03:58:08.085Z,99484.86
2018-08-24T04:00:38.711Z,99490.50
2018-08-24T04:03:09.022Z,99495.05
2018-08-24T04:05:38.820Z,99497.41
2018-08-24T04:08:08.796Z,99492.78
2018-08-24T04:10:38.530Z,99495.41
2018-08-24T04:13:08.296Z,99494.50
2018-08-24T04:15:38.097Z,99487.47
2018-08-24T04:18:07.929Z,99482.04
2018-08-24T04:20:37.913Z,99481.63
2018-08-24T04:23:07.661Z,99475.72
2018-08-24T04:25:38.711Z,99470.36
2018-08-24T04:28:09.784Z,99464.34
2018-08-24T04:30:40.710Z,99458.34
2018-08-24T04:33:11.424Z,99458.59
2018-08-24T04:35:42.820Z,99468.81
2018-08-24T04:38:13.545Z,99465.66
2018-08-24T04:40:44.598Z,99451.86
2018-08-24T04:43:15.335Z,99446.81
2018-08-24T04:45:46.821Z,99442.66
2018-08-24T04:48:18.268Z,99436.05
2018-08-24T04:50:51.165Z,99429.45
2018-08-24T04:53:21.401Z,99425.86
2018-08-24T04:55:51.484Z,99428.58
2018-08-24T04:58:21.351Z,99439.75
2018-08-24T05:00:52.961Z,99443.33
2018-08-24T05:03:23.773Z,99444.37
2018-08-24T05:05:54.740Z,99439.71
2018-08-24T05:08:25.493Z,99418.95
2018-08-24T05:10:56.969Z,99422.60
2018-08-24T05:13:27.668Z,99418.67
2018-08-24T05:15:58.987Z,99417.11
2018-08-24T05:18:29.684Z,99419.98
2018-08-24T05:21:00.623Z,99415.77
2018-08-24T05:23:31.397Z,99413.20
2018-08-24T05:26:02.993Z,99415.68
2018-08-24T05:28:33.612Z,99429.70
2018-08-24T05:31:05.045Z,99435.30
2018-08-24T05:33:35.577Z,99436.28
2018-08-24T05:36:06.757Z,99435.41
2018-08-24T05:38:37.519Z,99423.70
2018-08-24T05:41:09.077Z,99421.21
2018-08-24T05:43:39.544Z,99422.83
2018-08-24T05:46:10.732Z,99420.39
2018-08-24T05:48:41.479Z,99420.34
2018-08-24T05:51:12.926Z,99424.93
2018-08-24T05:53:43.745Z,99420.28
2018-08-24T05:56:14.841Z,99423.19
2018-08-24T05:58:45.586Z,99423.98
2018-08-24T06:01:16.642Z,99430.70
2018-08-24T06:03:47.385Z,99426.12
2018-08-24T06:06:18.925Z,99429.61
2018-08-24T06:09:21.051Z,99433.05
2018-08-24T06:11:50.888Z,99437.92
2018-08-24T06:14:20.685Z,99437.87
2018-08-24T06:16:55.912Z,99443.76
2018-08-24T06:19:25.660Z,99437.97
2018-08-24T06:21:55.720Z,99446.58
2018-08-24T06:24:25.875Z,99448.41
2018-08-24T06:26:55.936Z,99454.03
2018-08-24T06:29:26.076Z,99447.72
2018-08-24T06:31:55.833Z,99453.27
2018-08-24T06:34:25.793Z,99454.02
2018-08-24T06:36:55.943Z,99459.58
2018-08-24T06:39:25.715Z,99451.55
2018-08-24T06:41:55.926Z,99459.25
2018-08-24T06:44:25.843Z,99454.75
2018-08-24T06:46:56.249Z,99461.36
2018-08-24T06:49:26.098Z,99454.36
2018-08-24T06:51:55.844Z,99456.30
2018-08-24T06:54:25.727Z,99441.91
2018-08-24T06:56:55.847Z,99459.09
2018-08-24T06:59:25.902Z,99462.37
2018-08-24T07:01:56.377Z,99465.36
2018-08-24T07:04:26.531Z,99466.19
2018-08-24T07:06:56.754Z,99475.14
2018-08-24T07:09:26.813Z,99483.30
2018-08-24T07:11:56.683Z,99483.03
2018-08-24T07:14:26.501Z,99492.02
2018-08-24T07:16:59.412Z,99493.92
2018-08-24T07:19:30.070Z,99485.23
2018-08-24T07:22:00.805Z,99475.77
2018-08-24T07:24:30.577Z,99482.02
2018-08-24T07:27:00.381Z,99471.16
2018-08-24T07:29:30.370Z,99468.98
2018-08-24T07:32:00.827Z,99464.33
2018-08-24T07:34:31.078Z,99462.16
2018-08-24T07:37:00.985Z,99462.97
2018-08-24T07:39:30.870Z,99464.59
2018-08-24T07:42:00.954Z,99478.17
2018-08-24T07:44:34.617Z,99481.42
2018-08-24T07:47:14.865Z,99487.10
2018-08-24T07:49:44.774Z,99480.33
2018-08-24T07:52:15.526Z,99484.72
2018-08-24T07:54:45.922Z,99483.64
2018-08-24T07:57:16.240Z,99486.64
2018-08-24T07:59:46.599Z,99488.56
2018-08-24T08:02:16.760Z,99494.82
2018-08-24T08:04:47.321Z,99497.27
2018-08-24T08:07:17.145Z,99505.94
2018-08-24T08:09:46.914Z,99499.37
2018-08-24T08:12:16.841Z,99489.03
2018-08-24T08:15:18.298Z,99502.00
2018-08-24T08:17:48.655Z,99492.67
2018-08-24T08:20:18.462Z,99484.20
2018-08-24T08:22:48.470Z,99479.02
2018-08-24T08:25:18.456Z,99475.43
2018-08-24T08:27:55.545Z,99456.97
2018-08-24T08:30:25.669Z,99456.39
2018-08-24T08:32:55.480Z,99454.48
2018-08-24T08:35:25.404Z,99479.67
2018-08-24T08:37:55.408Z,99491.27
2018-08-24T08:40:25.426Z,99493.14
2018-08-24T08:42:55.906Z,99482.36
2018-08-24T08:45:25.725Z,99485.13
2018-08-24T08:47:55.729Z,99488.14
2018-08-24T08:50:25.709Z,99492.20
2018-08-24T08:52:55.471Z,99487.64
2018-08-24T08:55:25.709Z,99486.58
2018-08-24T08:57:55.650Z,99480.12
2018-08-24T09:00:25.524Z,99481.23
2018-08-24T09:02:55.462Z,99492.42
2018-08-24T09:05:25.323Z,99503.62
2018-08-24T09:07:55.428Z,99501.45
2018-08-24T09:10:25.433Z,99496.58
2018-08-24T09:12:55.467Z,99490.62
2018-08-24T09:15:25.480Z,99494.17
2018-08-24T09:18:00.271Z,99499.09
2018-08-24T09:20:35.301Z,99496.65
2018-08-24T09:23:10.733Z,99500.52
2018-08-24T09:25:45.566Z,99498.61
2018-08-24T09:28:23.394Z,99499.41
2018-08-24T09:30:58.704Z,99509.20
2018-08-24T09:33:28.501Z,99511.66
2018-08-24T09:35:59.943Z,99513.81
2018-08-24T09:38:29.720Z,99506.78
2018-08-24T09:40:59.760Z,99509.22
2018-08-24T09:43:34.761Z,99497.79
2018-08-24T09:46:04.562Z,99502.16
2018-08-24T09:48:39.403Z,99507.86
2018-08-24T09:51:14.345Z,99504.86
2018-08-24T09:53:49.449Z,99519.00
2018-08-24T09:56:19.583Z,99522.00
2018-08-24T09:58:49.512Z,99513.02
2018-08-24T10:01:24.285Z,99521.45
2018-08-24T10:03:59.655Z,99526.64
2018-08-24T10:06:34.439Z,99511.94
2018-08-24T10:09:06.209Z,99521.73
2018-08-24T10:11:36.253Z,99519.53
2018-08-24T10:14:06.647Z,99520.04
2018-08-24T10:16:36.491Z,99522.48
2018-08-24T10:19:07.073Z,99526.27
2018-08-24T10:21:36.901Z,99522.17
2018-08-24T10:24:07.230Z,99522.75
2018-08-24T10:26:37.695Z,99517.80
2018-08-24T10:29:08.096Z,99522.38
2018-08-24T10:31:41.348Z,99522.27
2018-08-24T10:34:11.229Z,99524.20
2018-08-24T10:36:41.378Z,99516.90
2018-08-24T10:39:12.420Z,99520.45
2018-08-24T10:41:42.845Z,99513.67
2018-08-24T10:44:12.689Z,99513.56
2018-08-24T10:46:42.632Z,99513.33
2018-08-24T10:49:12.546Z,99515.53
2018-08-24T10:51:42.313Z,99505.45
2018-08-24T10:54:12.434Z,99509.00
2018-08-24T10:56:42.346Z,99506.61
2018-08-24T10:59:12.437Z,99506.91
2018-08-24T11:01:42.544Z,99504.47
2018-08-24T11:04:12.308Z,99494.87
2018-08-24T11:06:42.426Z,99494.52
2018-08-24T11:09:12.685Z,99493.11
2018-08-24T11:11:42.434Z,99484.98
2018-08-24T11:14:12.583Z,99489.95
2018-08-24T11:16:42.362Z,99486.49
2018-08-24T11:19:12.380Z,99497.72
2018-08-24T11:21:42.528Z,99513.33
2018-08-24T11:24:12.310Z,99514.98
2018-08-24T11:26:42.430Z,99509.50
2018-08-24T11:29:12.452Z,99504.64
2018-08-24T11:31:42.474Z,99507.84
2018-08-24T11:34:12.789Z,99511.72
2018-08-24T11:36:42.542Z,99498.61
2018-08-24T11:39:12.431Z,99504.56
2018-08-24T11:41:42.389Z,99503.77
2018-08-24T11:44:12.392Z,99506.86
2018-08-24T11:46:42.472Z,99505.80
2018-08-24T11:49:12.342Z,99502.83
2018-08-24T11:51:42.845Z,99514.28
2018-08-24T11:54:12.811Z,99519.78
2018-08-24T11:56:42.802Z,99515.41
2018-08-24T11:59:12.758Z,99518.45
2018-08-24T12:01:42.737Z,99508.69
2018-08-24T12:04:12.647Z,99504.59
2018-08-24T12:06:42.517Z,99498.87
2018-08-24T12:09:12.540Z,99484.21
2018-08-24T12:11:42.415Z,99480.94
2018-08-24T12:14:13.594Z,99470.88
2018-08-24T12:16:44.053Z,99470.88
2018-08-24T12:19:13.815Z,99472.79
2018-08-24T12:21:43.691Z,99465.16
2018-08-24T12:24:13.700Z,99457.84
2018-08-24T12:26:43.905Z,99458.91
2018-08-24T12:29:13.812Z,99459.41
2018-08-24T12:31:44.964Z,99456.41
2018-08-24T12:34:14.971Z,99460.17
2018-08-24T12:36:44.756Z,99462.59
2018-08-24T12:39:14.617Z,99460.98
2018-08-24T12:41:44.550Z,99456.62
2018-08-24T12:44:16.282Z,99447.36
2018-08-24T12:46:46.425Z,99449.27
2018-08-24T12:49:16.466Z,99441.38
2018-08-24T12:52:00.791Z,99438.38
2018-08-24T12:54:31.656Z,99445.17
2018-08-24T12:57:02.245Z,99451.98
2018-08-24T12:59:32.511Z,99453.11
2018-08-24T13:02:02.775Z,99442.86
2018-08-24T13:04:32.538Z,99445.34
2018-08-24T13:07:02.424Z,99445.88
2018-08-24T13:09:32.547Z,99450.45
2018-08-24T13:12:02.353Z,99452.90
2018-08-24T13:14:32.971Z,99449.36
2018-08-24T13:17:02.939Z,99447.52
2018-08-24T13:19:32.937Z,99450.23
2018-08-24T13:22:02.886Z,99451.02
2018-08-24T13:24:32.786Z,99444.46
2018-08-24T13:27:03.354Z,99440.66
2018-08-24T13:29:33.460Z,99441.67
2018-08-24T13:32:03.483Z,99442.66
2018-08-24T13:34:33.474Z,99435.03
2018-08-24T13:37:03.509Z,99431.66
2018-08-24T13:39:33.998Z,99433.92
2018-08-24T13:42:04.466Z,99433.84
2018-08-24T13:44:34.893Z,99432.04
2018-08-24T13:47:04.942Z,99431.33
2018-08-24T13:49:35.496Z,99423.29
2018-08-24T13:52:05.815Z,99422.45
2018-08-24T13:54:36.645Z,99434.92
2018-08-24T13:57:06.889Z,99425.97
2018-08-24T13:59:37.618Z,99422.53
2018-08-24T14:02:07.955Z,99419.41
2018-08-24T14:04:38.697Z,99413.17
2018-08-24T14:07:08.793Z,99409.25
2018-08-24T14:09:39.094Z,99414.39
2018-08-24T14:12:10.058Z,99415.88
2018-08-24T14:14:40.412Z,99413.98
2018-08-24T14:17:17.230Z,99417.28
2018-08-24T14:19:47.797Z,99411.97
2018-08-24T14:22:18.119Z,99411.72
2018-08-24T14:24:47.930Z,99407.53
2018-08-24T14:27:17.931Z,99408.41
2018-08-24T14:29:48.313Z,99409.97
2018-08-24T14:32:18.459Z,99413.02
2018-08-24T14:34:48.612Z,99411.14
2018-08-24T14:37:18.685Z,99403.54
2018-08-24T14:39:48.887Z,99404.73
2018-08-24T14:42:18.991Z,99405.17
2018-08-24T14:44:48.917Z,99405.80
2018-08-24T14:47:19.009Z,99419.98
2018-08-24T14:49:48.890Z,99407.77
2018-08-24T14:52:19.456Z,99407.20
2018-08-24T14:54:50.347Z,99407.01
2018-08-24T14:57:20.330Z,99410.83
2018-08-24T14:59:50.322Z,99411.97
2018-08-24T15:02:20.234Z,99416.15
2018-08-24T15:04:50.118Z,99415.14
2018-08-24T15:07:19.999Z,99410.58
2018-08-24T15:09:50.254Z,99418.45
2018-08-24T15:12:20.297Z,99417.41
2018-08-24T15:14:50.175Z,99417.12
2018-08-24T15:17:21.133Z,99417.16
2018-08-24T15:19:52.028Z,99429.95
2018-08-24T15:22:23.605Z,99429.23
2018-08-24T15:24:54.377Z,99431.70
2018-08-24T15:27:25.732Z,99429.23
2018-08-24T15:29:56.560Z,99430.05
2018-08-24T15:32:27.751Z,99432.52
2018-08-24T15:34:58.415Z,99437.72
2018-08-24T15:37:29.658Z,99446.41
2018-08-24T15:40:00.340Z,99446.70
2018-08-24T15:42:31.414Z,99443.44
2018-08-24T15:45:02.533Z,99427.13
2018-08-24T15:47:33.966Z,99430.34
2018-08-24T15:50:04.502Z,99433.53
2018-08-24T15:52:35.621Z,99470.85
2018-08-24T15:55:06.261Z,99495.05
2018-08-24T15:57:37.185Z,99535.59
2018-08-24T16:00:08.598Z,99618.56
2018-08-24T16:02:39.400Z,99615.12
2018-08-24T16:05:11.067Z,99569.34
2018-08-24T16:21:54.430Z,99539.05
2018-08-24T16:24:24.454Z,99526.22
2018-08-24T16:26:54.314Z,99507.22
2018-08-24T16:29:24.401Z,99514.91
2018-08-24T16:31:54.460Z,99506.58
2018-08-24T16:34:24.306Z,99501.19
2018-08-24T16:36:54.427Z,99509.86
2018-08-24T16:39:24.692Z,99513.14
2018-08-24T16:41:54.953Z,99508.78
2018-08-24T16:44:24.815Z,99504.66
2018-08-24T16:46:54.701Z,99505.16
2018-08-24T16:49:25.120Z,99504.87
2018-08-24T16:51:55.151Z,99497.20
2018-08-24T16:54:24.920Z,99489.02
2018-08-24T16:56:54.939Z,99486.02
2018-08-24T16:59:25.054Z,99489.80
2018-08-24T17:01:55.057Z,99493.30
2018-08-24T17:04:24.913Z,99487.09
2018-08-24T17:06:54.889Z,99492.23
2018-08-24T17:09:24.804Z,99499.47
2018-08-24T17:11:54.775Z,99499.77
2018-08-24T17:14:24.920Z,99501.96
2018-08-24T17:16:54.685Z,99500.30
2018-08-24T17:19:24.831Z,99495.39
2018-08-24T17:21:54.758Z,99500.04
2018-08-24T17:24:24.765Z,99505.49
2018-08-24T17:26:55.149Z,99509.09
2018-08-24T17:29:25.010Z,99509.53
2018-08-24T17:31:54.919Z,99512.33
2018-08-24T17:34:24.793Z,99523.50
2018-08-24T17:48:06.011Z,99529.41
2018-08-24T17:50:39.365Z,99522.16
2018-08-24T17:53:12.855Z,99518.78
2018-08-24T17:55:46.620Z,99520.94
2018-08-24T17:58:16.716Z,99526.88
2018-08-24T18:00:46.801Z,99531.92
2018-08-24T18:03:16.749Z,99538.64
2018-08-24T18:05:46.764Z,99538.53
2018-08-24T18:08:16.641Z,99544.13
2018-08-24T18:10:49.057Z,99538.66
2018-08-24T18:13:19.184Z,99545.95
2018-08-24T18:15:49.303Z,99548.39
2018-08-24T18:18:19.281Z,99558.75
2018-08-24T18:20:49.308Z,99558.11
2018-08-24T18:23:19.713Z,99563.62
2018-08-24T18:25:49.659Z,99570.55
2018-08-24T18:28:19.624Z,99576.12
2018-08-24T18:30:49.509Z,99578.23
2018-08-24T18:33:19.764Z,99573.23
2018-08-24T18:35:49.769Z,99582.39
2018-08-24T18:38:19.692Z,99585.80
2018-08-24T18:40:49.659Z,99587.30
2018-08-24T18:43:19.540Z,99590.90
2018-08-24T18:45:49.477Z,99587.66
2018-08-24T18:48:19.399Z,99587.37
2018-08-24T18:50:49.490Z,99595.75
2018-08-24T18:53:19.857Z,99597.05
2018-08-24T18:55:49.925Z,99600.26
2018-08-24T18:58:19.889Z,99598.33
2018-08-24T19:00:49.941Z,99596.86
2018-08-24T19:03:20.086Z,99592.98
2018-08-24T19:05:50.278Z,99594.00
2018-08-24T19:08:20.263Z,99598.84
2018-08-24T19:10:55.194Z,99605.30
2018-08-24T19:13:25.195Z,99599.91
2018-08-24T19:15:56.100Z,99598.84
2018-08-24T19:18:31.051Z,99604.48
2018-08-24T19:21:07.091Z,99605.77
2018-08-24T19:23:37.251Z,99601.12
2018-08-24T19:26:07.269Z,99600.79
2018-08-24T19:28:42.264Z,99599.91
2018-08-24T19:31:12.204Z,99600.67
2018-08-24T19:33:42.468Z,99604.34
2018-08-24T19:36:12.414Z,99609.57
2018-08-24T19:38:42.272Z,99610.80
2018-08-24T19:54:11.980Z,99618.36
2018-08-24T19:56:42.623Z,99619.54
2018-08-24T19:59:13.922Z,99618.66
2018-08-24T20:01:43.943Z,99620.84
2018-08-24T20:04:14.134Z,99616.12
2018-08-24T20:06:49.223Z,99621.30
2018-08-24T20:09:24.067Z,99620.84
2018-08-24T20:11:54.491Z,99613.27
2018-08-24T20:14:29.238Z,99616.25
2018-08-24T20:17:04.346Z,99611.17
2018-08-24T20:19:34.520Z,99610.87
2018-08-24T20:22:04.550Z,99612.97
2018-08-24T20:24:34.574Z,99604.60
2018-08-24T20:27:04.444Z,99603.50
2018-08-24T20:29:35.030Z,99604.30
2018-08-24T20:32:05.712Z,99608.89
2018-08-24T20:34:35.736Z,99612.25
2018-08-24T20:37:05.682Z,99608.67
2018-08-24T20:39:35.570Z,99616.16
2018-08-24T20:42:05.625Z,99617.26
2018-08-24T20:44:35.498Z,99611.16
2018-08-24T20:47:05.542Z,99621.09
2018-08-24T20:49:35.364Z,99621.00
2018-08-24T20:52:05.714Z,99611.23
2018-08-24T20:54:36.004Z,99610.48
2018-08-24T20:57:06.676Z,99619.30
2018-08-24T20:59:36.609Z,99626.84
2018-08-24T21:02:06.864Z,99622.05
2018-08-24T21:04:37.161Z,99624.69
2018-08-24T21:07:07.798Z,99627.00
2018-08-24T21:09:37.601Z,99621.87
2018-08-24T21:12:08.037Z,99621.56
2018-08-24T21:14:38.248Z,99620.52
2018-08-24T21:17:08.314Z,99626.70
2018-08-24T21:19:38.303Z,99625.15
2018-08-24T21:22:08.241Z,99627.84
2018-08-24T21:24:38.705Z,99621.41
2018-08-24T21:27:08.778Z,99614.09
2018-08-24T21:29:39.224Z,99614.97
2018-08-24T21:32:09.864Z,99617.96
2018-08-24T21:34:40.218Z,99618.47
2018-08-24T21:37:10.678Z,99623.86
2018-08-24T21:39:40.812Z,99621.70
2018-08-24T21:42:10.659Z,99621.56
2018-08-24T21:44:41.241Z,99621.56
2018-08-24T21:47:15.004Z,99621.27
2018-08-24T21:49:45.240Z,99621.56
2018-08-24T21:52:15.371Z,99614.41
2018-08-24T21:54:45.623Z,99625.17
2018-08-24T21:57:15.770Z,99629.67
2018-08-24T21:59:46.425Z,99623.39
2018-08-24T22:02:16.643Z,99620.02
2018-08-24T22:04:47.006Z,99625.95
2018-08-24T22:07:17.341Z,99620.86
2018-08-24T22:09:47.414Z,99623.87
2018-08-24T22:12:17.466Z,99626.47
2018-08-24T22:14:47.737Z,99621.78
2018-08-24T22:17:17.586Z,99621.38
2018-08-24T22:19:47.525Z,99611.20
2018-08-24T22:22:17.781Z,99616.11
2018-08-24T22:24:47.828Z,99615.48
2018-08-24T22:27:18.834Z,99608.76
2018-08-24T22:29:49.537Z,99612.20
2018-08-24T22:32:19.948Z,99610.26
2018-08-24T22:34:50.359Z,99617.28
2018-08-24T22:37:20.314Z,99614.59
2018-08-24T22:39:50.152Z,99615.64
2018-08-24T22:42:20.398Z,99615.55
2018-08-24T22:44:50.216Z,99618.78
2018-08-24T22:47:20.350Z,99615.25
2018-08-24T22:49:59.154Z,99617.34
2018-08-24T22:52:29.749Z,99622.22
2018-08-24T22:54:59.777Z,99624.82
2018-08-24T22:57:30.343Z,99623.62
2018-08-24T23:00:00.668Z,99621.63
2018-08-24T23:02:30.882Z,99617.89
2018-08-24T23:05:00.733Z,99614.82
2018-08-24T23:07:30.703Z,99615.36
2018-08-24T23:10:01.186Z,99621.55
2018-08-24T23:12:31.605Z,99621.94
2018-08-24T23:15:01.594Z,99632.06
2018-08-24T23:17:31.451Z,99634.53
2018-08-24T23:20:01.355Z,99634.13
2018-08-24T23:22:31.165Z,99635.16
2018-08-24T23:25:01.200Z,99641.66
2018-08-24T23:27:31.340Z,99639.38
2018-08-24T23:30:01.251Z,99641.92
2018-08-24T23:32:31.406Z,99645.30
2018-08-24T23:35:01.196Z,99651.08
2018-08-24T23:37:31.431Z,99660.98
2018-08-24T23:40:01.421Z,99656.14
2018-08-24T23:42:31.213Z,99655.61
2018-08-24T23:45:01.240Z,99660.38
2018-08-24T23:47:31.809Z,99661.73
2018-08-24T23:50:01.678Z,99667.81
2018-08-24T23:52:31.524Z,99666.37
2018-08-24T23:55:01.741Z,99672.39
2018-08-24T23:57:31.977Z,99678.44
